Main page
METAR-TAF:

METAR-TAF

Airports :

Wellington, New Zealand

Wellington International Airport

latitude: 41-20S, longitude: 174-48E, elevation: 12 m

Current weather observation

The report was made 40 minutes ago, at 01:30 UTC
Wind 15 kt from the North
Temperature 15°C
Humidity 72%
Pressure 1012 hPa
Visibility 10 km or more

METAR: NZWN 230130Z AUTO 36015KT 9999 SCT023/// BKN028/// BKN034/// 15/10 Q1012 NOSIG

Time: 14:10 (02:10 UTC)

Forecast

The report was made 3 hours and 2 minutes ago, at 23:08 UTC
Forecast valid from 23 at 00 UTC to 24 at 00 UTC
Wind 15 kt from the North
Visibility 10 km or more
Scattered clouds at a height of 2000 ft

TAF: NZWN 222308Z 2300/2400 36015KT 9999 SCT020

Weather observations and forecasts of more than 4000 airports (METAR and TAF reports).

The available stations are represented by yellow and red dots on the map.

Hover mouse over dot to see the name of the station.

Then click to see weather observations and forecasts.

To change the map : click on the green buttons with a black cross to zoom in, on the green button with a dash to zoom out, or on the green arrows for adjacent maps.


METAR-TAF: